Time;durP1;ratioP1;P1;durP2;ratioP2;P2;SDS_P1;SDS_P2;PMS_P1;PMS_P2;Temp;Humidity;BMP_temperature;BMP_pressure;BME280_temperature;BME280_humidity;BME280_pressure;Samples;Min_cycle;Max_cycle;Signal;HPM_P1;HPM_P2
2022/04/08 00:00:48;;;;;;;;;;;;;;;7.55;59.98;98923.22;4417476;32;19964;-70
2022/04/08 00:03:14;;;;;;;;;;;;;;;7.60;59.78;98919.78;4413055;32;20355;-70
2022/04/08 00:05:40;;;;;;;;;;;;;;;7.50;60.18;98912.63;4419264;32;19989;-70
2022/04/08 00:08:05;;;;;;;;;;;;;;;7.46;60.36;98923.19;4416849;32;20005;-70
2022/04/08 00:10:31;;;;;;;;;;;;;;;7.44;60.62;98914.47;4418431;32;20242;-70
2022/04/08 00:12:57;;;;;;;;;;;;;;;7.53;60.10;98920.88;4416172;32;20311;-70
2022/04/08 00:15:23;;;;;;;;;;;;;;;7.51;60.42;98922.56;4418004;32;19993;-70
2022/04/08 00:17:49;;;;;;;;;;;;;;;7.47;60.44;98921.94;4418898;32;20004;-70
2022/04/08 00:20:14;;;;;;;;;;;;;;;7.71;59.24;98936.94;4417072;32;19953;-70
2022/04/08 00:22:40;;;;;;;;;;;;;;;7.38;60.39;98936.69;4418335;32;19983;-70
2022/04/08 00:25:07;;;;;;;;;;;;;;;7.44;60.17;98940.44;4418204;32;19997;-70
2022/04/08 00:27:32;;;;;;;;;;;;;;;7.43;60.33;98940.91;4414992;32;19961;-70
2022/04/08 00:29:58;;;;;;;;;;;;;;;7.44;59.98;98942.44;4416084;32;20494;-70
2022/04/08 00:32:24;;;;;;;;;;;;;;;7.20;60.78;98947.78;4416249;32;19975;-70
2022/04/08 00:34:49;;;;;;;;;;;;;;;7.25;60.56;98941.59;4415452;32;19957;-70
2022/04/08 00:37:15;;;;;;;;;;;;;;;7.38;60.39;98947.88;4407114;32;20009;-70
2022/04/08 00:39:40;;;;;;;;;;;;;;;7.31;60.15;98956.56;4420495;32;19961;-70
2022/04/08 00:42:06;;;;;;;;;;;;;;;7.30;60.25;98949.37;4420111;32;20336;-70
2022/04/08 00:44:32;;;;;;;;;;;;;;;7.45;59.70;98952.38;4422633;32;19953;-70
2022/04/08 00:46:58;;;;;;;;;;;;;;;7.36;60.12;98949.56;4419382;32;20004;-70
2022/04/08 00:49:23;;;;;;;;;;;;;;;7.38;59.75;98961.06;4421061;32;20022;-70
2022/04/08 00:51:50;;;;;;;;;;;;;;;7.43;59.58;98966.09;4419114;32;19970;-70
2022/04/08 00:54:16;;;;;;;;;;;;;;;7.44;59.06;98962.81;4418098;32;20381;-70
2022/04/08 00:56:42;;;;;;;;;;;;;;;7.88;58.43;98964.22;4419852;32;19988;-70
2022/04/08 00:59:07;;;;;;;;;;;;;;;8.29;56.65;98964.94;4425169;32;20033;-70
2022/04/08 01:01:33;;;;;;;;;;;;;;;8.33;56.22;98957.13;4422433;32;19989;-70
2022/04/08 01:03:58;;;;;;;;;;;;;;;8.34;56.01;98958.72;4419409;32;19965;-70
2022/04/08 01:06:25;;;;;;;;;;;;;;;7.57;58.34;98948.72;4421246;32;20272;-70
2022/04/08 01:08:51;;;;;;;;;;;;;;;7.29;59.58;98949.84;4420919;32;19992;-70
2022/04/08 01:11:17;;;;;;;;;;;;;;;7.14;60.13;98958.00;4417430;32;20298;-70
2022/04/08 01:13:43;;;;;;;;;;;;;;;7.26;59.67;98942.37;4420231;32;19949;-70
2022/04/08 01:16:08;;;;;;;;;;;;;;;7.17;60.07;98957.09;4423781;32;19949;-70
2022/04/08 01:18:34;;;;;;;;;;;;;;;7.07;60.56;98951.91;4422215;32;20003;-70
2022/04/08 01:21:05;;;;;;;;;;;;;;;7.17;60.32;98947.91;4418943;32;19962;-70
2022/04/08 01:23:34;;;;;;;;;;;;;;;7.27;60.12;98947.50;4420651;32;19962;-70
2022/04/08 01:26:04;;;;;;;;;;;;;;;7.23;60.22;98948.87;4416921;32;19965;-70
2022/04/08 01:28:30;;;;;;;;;;;;;;;7.13;61.02;98944.47;4419077;32;19997;-70
2022/04/08 01:30:55;;;;;;;;;;;;;;;7.08;61.06;98942.28;4402647;32;19968;-70
2022/04/08 01:33:21;;;;;;;;;;;;;;;7.16;61.08;98946.38;4419922;32;19949;-70
2022/04/08 01:35:47;;;;;;;;;;;;;;;7.11;61.22;98952.53;4420811;32;20398;-70
2022/04/08 01:38:13;;;;;;;;;;;;;;;7.09;61.12;98953.00;4418237;32;19985;-70
2022/04/08 01:40:38;;;;;;;;;;;;;;;7.12;61.00;98945.72;4417649;32;19992;-69
2022/04/08 01:43:04;;;;;;;;;;;;;;;7.15;60.79;98950.41;4416733;32;20023;-69
2022/04/08 01:45:30;;;;;;;;;;;;;;;7.04;61.21;98950.81;4421467;32;19958;-69
2022/04/08 01:47:56;;;;;;;;;;;;;;;7.19;60.98;98939.84;4419351;32;20509;-69
2022/04/08 01:50:22;;;;;;;;;;;;;;;7.17;60.97;98947.91;4416179;32;19990;-69
2022/04/08 01:52:48;;;;;;;;;;;;;;;7.03;61.61;98949.25;4417136;32;19960;-70
2022/04/08 01:55:14;;;;;;;;;;;;;;;7.06;61.55;98953.91;4421609;32;20442;-70
2022/04/08 01:57:41;;;;;;;;;;;;;;;7.08;61.47;98957.03;4416760;32;19957;-70
2022/04/08 02:00:08;;;;;;;;;;;;;;;7.13;61.34;98961.28;4417541;32;19957;-70
2022/04/08 02:02:34;;;;;;;;;;;;;;;7.15;61.22;98964.41;4418192;32;20011;-68
2022/04/08 02:05:01;;;;;;;;;;;;;;;7.03;61.78;98956.87;4417746;32;20032;-69
2022/04/08 02:07:27;;;;;;;;;;;;;;;7.08;61.63;98959.06;4415340;32;20263;-69
2022/04/08 02:09:53;;;;;;;;;;;;;;;7.24;61.50;98956.06;4418049;32;19985;-69
2022/04/08 02:12:19;;;;;;;;;;;;;;;7.47;60.34;98970.31;4413574;32;19983;-69
2022/04/08 02:14:45;;;;;;;;;;;;;;;7.11;61.49;98970.13;4415883;32;20056;-69
2022/04/08 02:17:10;;;;;;;;;;;;;;;7.19;61.26;98973.41;4416096;32;19953;-68
2022/04/08 02:19:36;;;;;;;;;;;;;;;6.96;62.38;98979.50;4415389;32;20342;-69
2022/04/08 02:22:03;;;;;;;;;;;;;;;7.11;61.75;98984.09;4418284;32;20319;-68
2022/04/08 02:24:28;;;;;;;;;;;;;;;7.05;61.71;98980.34;4418395;32;19980;-69
2022/04/08 02:26:55;;;;;;;;;;;;;;;7.05;62.13;98977.53;4413771;32;19997;-69
2022/04/08 02:29:21;;;;;;;;;;;;;;;7.20;61.61;98980.56;4416096;32;20424;-68
2022/04/08 02:31:47;;;;;;;;;;;;;;;7.00;62.00;98988.53;4418893;32;20312;-68
2022/04/08 02:34:13;;;;;;;;;;;;;;;7.37;60.92;98981.91;4417527;32;19949;-68
2022/04/08 02:36:38;;;;;;;;;;;;;;;7.37;60.86;98982.66;4418851;32;20030;-68
2022/04/08 02:39:04;;;;;;;;;;;;;;;7.23;61.46;98977.66;4411083;32;20009;-68
2022/04/08 02:41:30;;;;;;;;;;;;;;;7.19;61.51;98991.00;4415412;32;19964;-68
2022/04/08 02:43:55;;;;;;;;;;;;;;;7.17;61.61;98978.69;4418190;32;20003;-68
2022/04/08 02:46:21;;;;;;;;;;;;;;;7.11;62.12;98986.09;4399842;32;19957;-69
2022/04/08 02:48:46;;;;;;;;;;;;;;;6.95;62.12;98991.91;4415074;32;19972;-69
2022/04/08 02:51:12;;;;;;;;;;;;;;;6.96;63.00;98997.06;4420118;32;20009;-69
2022/04/08 02:53:38;;;;;;;;;;;;;;;6.70;63.25;98973.28;4416151;32;20236;-69
2022/04/08 02:56:03;;;;;;;;;;;;;;;6.58;63.61;98985.28;4413489;32;20003;-69
2022/04/08 02:58:29;;;;;;;;;;;;;;;6.50;64.27;98977.63;4418783;32;20611;-69
2022/04/08 03:00:59;;;;;;;;;;;;;;;6.58;63.12;98985.28;4411446;32;20835;-69
2022/04/08 03:03:26;;;;;;;;;;;;;;;6.84;62.59;98983.91;4410059;32;19965;-69
2022/04/08 03:05:52;;;;;;;;;;;;;;;6.78;62.63;98979.37;4416386;32;20049;-69
2022/04/08 03:08:18;;;;;;;;;;;;;;;6.72;62.84;98981.22;4418761;32;19994;-69
2022/04/08 03:10:44;;;;;;;;;;;;;;;6.76;63.08;98988.22;4406946;32;19984;-69
2022/04/08 03:13:11;;;;;;;;;;;;;;;6.43;64.24;98997.41;4417061;32;20421;-69
2022/04/08 03:15:37;;;;;;;;;;;;;;;6.44;64.24;98996.97;4414816;32;20315;-69
2022/04/08 03:18:03;;;;;;;;;;;;;;;6.52;63.97;98995.50;4421480;32;20291;-69
2022/04/08 03:20:28;;;;;;;;;;;;;;;6.54;64.25;98995.03;4402999;32;19968;-69
2022/04/08 03:22:54;;;;;;;;;;;;;;;6.44;64.90;98993.41;4413367;32;19997;-69
2022/04/08 03:25:20;;;;;;;;;;;;;;;6.65;63.89;98999.00;4419692;32;20406;-69
2022/04/08 03:27:45;;;;;;;;;;;;;;;6.79;63.67;98997.72;4414125;32;20266;-69
2022/04/08 03:30:11;;;;;;;;;;;;;;;6.53;64.15;98988.66;4413036;32;19969;-69
2022/04/08 03:32:37;;;;;;;;;;;;;;;6.31;65.12;98995.44;4413901;32;20398;-69
2022/04/08 03:35:03;;;;;;;;;;;;;;;6.13;65.61;98990.47;4412962;32;20219;-69
2022/04/08 03:37:29;;;;;;;;;;;;;;;6.14;65.97;98989.25;4415040;32;19958;-69
2022/04/08 03:39:55;;;;;;;;;;;;;;;5.96;66.38;98986.28;4412458;32;19962;-69
2022/04/08 03:42:22;;;;;;;;;;;;;;;5.95;66.73;98982.69;4419147;32;19966;-69
2022/04/08 03:44:49;;;;;;;;;;;;;;;5.85;67.11;98978.25;4416086;32;19979;-69
2022/04/08 03:47:14;;;;;;;;;;;;;;;5.84;67.08;98984.28;4420354;32;20634;-69
2022/04/08 03:49:40;;;;;;;;;;;;;;;5.79;67.25;98993.97;4417592;32;20431;-69
2022/04/08 03:52:05;;;;;;;;;;;;;;;5.76;68.01;98986.50;4419717;32;20009;-69
2022/04/08 03:54:31;;;;;;;;;;;;;;;6.15;66.81;98979.63;4415877;32;20466;-69
2022/04/08 03:56:58;;;;;;;;;;;;;;;6.18;66.52;98981.53;4416917;32;19994;-69
2022/04/08 03:59:24;;;;;;;;;;;;;;;5.98;66.76;98981.81;4417027;32;20533;-69
2022/04/08 04:01:50;;;;;;;;;;;;;;;5.88;66.87;98982.94;4413320;32;19961;-69
2022/04/08 04:04:16;;;;;;;;;;;;;;;6.14;66.24;98978.84;4417969;32;20306;-69
2022/04/08 04:06:41;;;;;;;;;;;;;;;5.98;66.51;98987.37;4417986;32;19977;-69
2022/04/08 04:09:07;;;;;;;;;;;;;;;5.90;66.94;98974.13;4415718;32;19992;-69
2022/04/08 04:11:33;;;;;;;;;;;;;;;6.26;65.78;98977.25;4411248;32;19966;-69
2022/04/08 04:13:59;;;;;;;;;;;;;;;6.18;65.95;98973.16;4416233;32;20256;-69
2022/04/08 04:16:26;;;;;;;;;;;;;;;6.00;66.65;98979.34;4416941;32;19992;-68
2022/04/08 04:18:52;;;;;;;;;;;;;;;5.88;67.18;98982.94;4418024;32;19961;-68
2022/04/08 04:21:18;;;;;;;;;;;;;;;5.97;66.89;98983.03;4414458;32;19954;-68
2022/04/08 04:23:43;;;;;;;;;;;;;;;6.04;66.59;98993.97;4416288;32;20342;-68
2022/04/08 04:26:09;;;;;;;;;;;;;;;5.85;67.29;98986.63;4420802;32;20477;-68
2022/04/08 04:28:35;;;;;;;;;;;;;;;5.93;67.31;98992.75;4418176;32;20404;-69
2022/04/08 04:31:04;;;;;;;;;;;;;;;5.95;67.68;98993.06;4415200;32;20001;-68
2022/04/08 04:33:30;;;;;;;;;;;;;;;5.87;67.59;98986.94;4418987;32;19993;-68
2022/04/08 04:35:56;;;;;;;;;;;;;;;6.19;66.44;98973.94;4418496;32;20474;-68
2022/04/08 04:38:22;;;;;;;;;;;;;;;6.61;65.11;98984.38;4421301;32;19957;-68
2022/04/08 04:40:48;;;;;;;;;;;;;;;6.47;64.90;98978.53;4416302;32;19958;-68
2022/04/08 04:43:14;;;;;;;;;;;;;;;6.56;64.71;98973.78;4419667;32;19985;-68
2022/04/08 04:45:39;;;;;;;;;;;;;;;6.64;64.33;98974.31;4419388;32;19950;-69
2022/04/08 04:48:06;;;;;;;;;;;;;;;6.88;63.27;98964.22;4417770;32;20339;-69
2022/04/08 04:50:31;;;;;;;;;;;;;;;7.00;62.93;98966.16;4415854;32;19953;-69
2022/04/08 04:52:57;;;;;;;;;;;;;;;7.14;62.30;98960.81;4416517;32;20004;-69
2022/04/08 04:55:22;;;;;;;;;;;;;;;6.92;62.09;98962.06;4417443;32;20006;-68
2022/04/08 04:57:48;;;;;;;;;;;;;;;6.94;62.92;98965.19;4419119;32;19985;-68
2022/04/08 05:00:13;;;;;;;;;;;;;;;6.89;62.98;98966.56;4415639;32;19993;-69
2022/04/08 05:02:39;;;;;;;;;;;;;;;6.67;63.77;98971.37;4415969;32;19950;-69
2022/04/08 05:05:06;;;;;;;;;;;;;;;6.63;64.22;98970.72;4416973;32;19989;-69
2022/04/08 05:07:31;;;;;;;;;;;;;;;6.50;64.43;98961.62;4416841;32;20063;-69
2022/04/08 05:09:57;;;;;;;;;;;;;;;6.47;64.43;98958.97;4413854;32;19961;-69
2022/04/08 05:12:22;;;;;;;;;;;;;;;6.39;64.68;98957.66;4418742;32;19962;-69
2022/04/08 05:14:48;;;;;;;;;;;;;;;6.14;65.22;98962.09;4422892;32;20372;-69
2022/04/08 05:17:14;;;;;;;;;;;;;;;6.10;65.53;98952.28;4421049;32;19985;-69
2022/04/08 05:19:40;;;;;;;;;;;;;;;5.94;66.27;98958.81;4418196;32;20216;-70
2022/04/08 05:22:05;;;;;;;;;;;;;;;6.00;65.83;98957.00;4417986;32;19949;-69
2022/04/08 05:24:30;;;;;;;;;;;;;;;5.83;66.31;98952.78;4418392;32;19995;-69
2022/04/08 05:26:56;;;;;;;;;;;;;;;5.88;66.23;98957.81;4415895;32;19957;-69
2022/04/08 05:29:22;;;;;;;;;;;;;;;5.83;66.43;98958.38;4416183;32;19981;-69
2022/04/08 05:31:48;;;;;;;;;;;;;;;5.73;66.68;98951.13;4416107;32;19990;-69
2022/04/08 05:34:14;;;;;;;;;;;;;;;5.70;66.98;98954.81;4419776;32;19958;-69
2022/04/08 05:36:39;;;;;;;;;;;;;;;5.62;67.49;98947.13;4418818;32;19975;-69
2022/04/08 05:39:05;;;;;;;;;;;;;;;5.58;67.61;98963.97;4415547;32;19975;-69
2022/04/08 05:41:31;;;;;;;;;;;;;;;5.52;68.21;98962.97;4418930;32;20331;-69
2022/04/08 05:43:57;;;;;;;;;;;;;;;5.51;68.24;98961.41;4419017;32;20012;-69
2022/04/08 05:46:22;;;;;;;;;;;;;;;5.49;68.51;98971.47;4420099;32;19993;-69
2022/04/08 05:48:48;;;;;;;;;;;;;;;5.60;68.29;98967.09;4415253;32;19989;-69
2022/04/08 05:51:14;;;;;;;;;;;;;;;5.57;68.30;98970.78;4418865;32;19992;-69
2022/04/08 05:53:40;;;;;;;;;;;;;;;5.49;68.77;98966.66;4416642;32;20030;-69
2022/04/08 05:56:05;;;;;;;;;;;;;;;5.59;68.48;98971.09;4416606;32;19964;-69
2022/04/08 05:58:31;;;;;;;;;;;;;;;5.66;67.96;98978.47;4415739;32;20106;-69
2022/04/08 06:00:57;;;;;;;;;;;;;;;5.77;68.10;98964.97;4420582;32;19965;-69
2022/04/08 06:03:23;;;;;;;;;;;;;;;5.90;67.31;98969.31;4417500;32;20400;-69
2022/04/08 06:05:48;;;;;;;;;;;;;;;5.98;67.01;98976.22;4405454;32;19957;-69
2022/04/08 06:08:14;;;;;;;;;;;;;;;6.13;66.76;98976.50;4413444;32;20041;-70
2022/04/08 06:10:39;;;;;;;;;;;;;;;6.44;65.56;98968.25;4416816;32;19953;-69
2022/04/08 06:13:05;;;;;;;;;;;;;;;6.38;65.17;98979.22;4414262;32;20005;-69
2022/04/08 06:15:31;;;;;;;;;;;;;;;6.51;64.74;98971.59;4414151;32;19957;-69
2022/04/08 06:17:57;;;;;;;;;;;;;;;6.52;64.54;98961.16;4416481;32;19946;-69
2022/04/08 06:20:24;;;;;;;;;;;;;;;6.52;64.90;98975.13;4415687;32;20549;-69
2022/04/08 06:22:52;;;;;;;;;;;;;;;6.50;64.72;98977.63;4416904;32;19962;-69
2022/04/08 06:25:19;;;;;;;;;;;;;;;6.59;64.77;98970.06;4417060;32;19985;-69
2022/04/08 06:27:45;;;;;;;;;;;;;;;7.08;63.30;98973.81;4412184;32;19985;-69
2022/04/08 06:30:11;;;;;;;;;;;;;;;7.08;62.60;98967.44;4416245;32;19967;-70
2022/04/08 06:32:37;;;;;;;;;;;;;;;7.05;62.94;98971.16;4419120;32;19957;-69
2022/04/08 06:35:03;;;;;;;;;;;;;;;7.08;62.93;98975.84;4417527;32;19997;-69
2022/04/08 06:37:29;;;;;;;;;;;;;;;7.19;62.19;98968.62;4421077;32;20268;-69
2022/04/08 06:39:55;;;;;;;;;;;;;;;7.26;62.60;98968.34;4422113;32;19957;-69
2022/04/08 06:42:21;;;;;;;;;;;;;;;7.36;61.33;98972.72;4417166;32;20367;-70
2022/04/08 06:44:47;;;;;;;;;;;;;;;7.45;61.36;98969.19;4418099;32;21115;-69
2022/04/08 06:47:12;;;;;;;;;;;;;;;7.64;60.34;98968.03;4419113;32;20016;-70
2022/04/08 06:49:43;;;;;;;;;;;;;;;7.70;59.84;98964.16;4415808;32;19941;-69
2022/04/08 06:52:09;;;;;;;;;;;;;;;7.72;59.98;98972.09;4416100;32;20001;-69
2022/04/08 06:54:35;;;;;;;;;;;;;;;7.83;59.62;98964.03;4414583;32;19981;-69
2022/04/08 06:57:01;;;;;;;;;;;;;;;8.02;59.10;98969.22;4421796;32;19995;-69
2022/04/08 06:59:26;;;;;;;;;;;;;;;7.94;59.50;98973.56;4413738;32;20331;-69
2022/04/08 07:01:52;;;;;;;;;;;;;;;8.08;59.11;98972.94;4411199;32;19954;-69
2022/04/08 07:04:18;;;;;;;;;;;;;;;8.26;57.82;98975.06;4414661;32;20605;-69
2022/04/08 07:06:44;;;;;;;;;;;;;;;8.36;57.55;98976.59;4403582;32;20022;-69
2022/04/08 07:09:10;;;;;;;;;;;;;;;8.48;56.77;98978.50;4421537;32;19978;-70
2022/04/08 07:11:35;;;;;;;;;;;;;;;8.58;56.41;98977.25;4417787;32;19976;-69
2022/04/08 07:14:01;;;;;;;;;;;;;;;8.42;57.86;98982.38;4411548;32;19957;-70
2022/04/08 07:16:27;;;;;;;;;;;;;;;8.41;58.30;98987.22;4416542;32;19964;-69
2022/04/08 07:18:53;;;;;;;;;;;;;;;8.43;57.37;98978.34;4419011;32;20057;-69
2022/04/08 07:21:18;;;;;;;;;;;;;;;8.55;56.99;98977.38;4415622;32;19953;-70
2022/04/08 07:23:44;;;;;;;;;;;;;;;8.62;56.96;98977.84;4418562;32;20012;-69
2022/04/08 07:26:10;;;;;;;;;;;;;;;8.68;56.73;98978.78;4417491;32;20095;-69
2022/04/08 07:28:36;;;;;;;;;;;;;;;9.03;55.57;98988.44;4414024;32;19975;-70
2022/04/08 07:31:02;;;;;;;;;;;;;;;9.57;53.42;98995.87;4415367;32;19962;-69
2022/04/08 07:33:27;;;;;;;;;;;;;;;9.63;51.85;98983.56;4411842;32;20001;-69
2022/04/08 07:35:53;;;;;;;;;;;;;;;9.87;51.32;98984.38;4417305;32;20261;-69
2022/04/08 07:38:18;;;;;;;;;;;;;;;9.83;51.48;98988.63;4416709;32;19993;-69
2022/04/08 07:40:44;;;;;;;;;;;;;;;9.93;50.70;98985.28;4416053;32;20349;-69
2022/04/08 07:43:10;;;;;;;;;;;;;;;10.01;50.19;98985.72;4416762;32;19957;-69
2022/04/08 07:45:36;;;;;;;;;;;;;;;9.96;50.37;98983.56;4419542;32;21338;-69
2022/04/08 07:48:01;;;;;;;;;;;;;;;9.96;50.07;98983.56;4416423;32;19956;-70
2022/04/08 07:50:28;;;;;;;;;;;;;;;10.00;48.69;98987.75;4418172;32;19957;-69
2022/04/08 07:52:53;;;;;;;;;;;;;;;10.27;49.58;98988.88;4418422;32;19953;-69
2022/04/08 07:55:20;;;;;;;;;;;;;;;10.37;48.66;98984.75;4419973;32;19964;-69
2022/04/08 07:57:46;;;;;;;;;;;;;;;10.28;48.45;98988.37;4418962;32;19975;-69
2022/04/08 08:00:13;;;;;;;;;;;;;;;10.48;48.21;98991.38;4422753;32;19954;-69
2022/04/08 08:02:38;;;;;;;;;;;;;;;10.48;48.31;98996.19;4416435;32;19957;-69
2022/04/08 08:05:04;;;;;;;;;;;;;;;10.13;48.95;98992.38;4415727;32;20019;-70
2022/04/08 08:07:30;;;;;;;;;;;;;;;9.84;48.78;98990.94;4402736;32;19961;-69
2022/04/08 08:09:55;;;;;;;;;;;;;;;10.18;48.90;98988.94;4419774;32;21075;-69
2022/04/08 08:12:21;;;;;;;;;;;;;;;10.54;46.31;98997.88;4422944;32;20306;-69
2022/04/08 08:14:47;;;;;;;;;;;;;;;10.29;47.70;98989.16;4417441;32;20030;-69
2022/04/08 08:17:13;;;;;;;;;;;;;;;10.09;46.95;98990.53;4419613;32;20559;-69
2022/04/08 08:19:38;;;;;;;;;;;;;;;10.13;47.52;98993.94;4408273;32;20331;-69
2022/04/08 08:22:04;;;;;;;;;;;;;;;10.78;45.35;98992.22;4422426;32;20025;-70
2022/04/08 08:24:30;;;;;;;;;;;;;;;11.00;44.55;98993.44;4421203;32;19962;-70
2022/04/08 08:26:55;;;;;;;;;;;;;;;11.23;44.34;98997.44;4418603;32;19975;-70
2022/04/08 08:29:21;;;;;;;;;;;;;;;10.82;45.20;98998.44;4417606;32;20062;-70
2022/04/08 08:31:47;;;;;;;;;;;;;;;10.93;44.90;98985.38;4418226;32;19961;-70
2022/04/08 08:34:13;;;;;;;;;;;;;;;11.30;44.97;98988.59;4417580;32;19997;-69
2022/04/08 08:36:38;;;;;;;;;;;;;;;11.43;44.10;98992.66;4419452;32;19994;-69
2022/04/08 08:39:04;;;;;;;;;;;;;;;11.56;44.18;98997.97;4418262;32;19981;-70
2022/04/08 08:41:30;;;;;;;;;;;;;;;11.90;42.36;98995.25;4416547;32;19953;-70
2022/04/08 08:43:55;;;;;;;;;;;;;;;12.38;41.83;99004.13;4418483;32;19973;-70
2022/04/08 08:46:21;;;;;;;;;;;;;;;12.41;41.43;99005.97;4418939;32;19991;-70
2022/04/08 08:48:50;;;;;;;;;;;;;;;12.92;40.79;99008.91;4418008;32;20353;-70
2022/04/08 08:51:17;;;;;;;;;;;;;;;13.24;39.84;99013.41;4415780;32;19957;-70
2022/04/08 08:53:43;;;;;;;;;;;;;;;13.61;38.58;99014.28;4416154;32;19965;-70
2022/04/08 08:56:09;;;;;;;;;;;;;;;13.96;37.93;99020.47;4420153;32;19950;-70
2022/04/08 08:58:36;;;;;;;;;;;;;;;13.48;37.64;99016.72;4418700;32;20085;-70
2022/04/08 09:01:02;;;;;;;;;;;;;;;14.03;37.51;99027.72;4415096;32;20392;-70
2022/04/08 09:03:29;;;;;;;;;;;;;;;14.58;37.01;99024.50;4421749;32;20338;-70
2022/04/08 09:05:55;;;;;;;;;;;;;;;15.13;36.21;99033.97;4417193;32;20004;-70
2022/04/08 09:08:21;;;;;;;;;;;;;;;15.38;35.07;99027.38;4401238;32;20414;-70
2022/04/08 09:10:48;;;;;;;;;;;;;;;15.62;34.78;99029.72;4417762;32;19953;-70
2022/04/08 09:13:19;;;;;;;;;;;;;;;15.31;34.45;99030.66;4418233;32;19966;-70
2022/04/08 09:15:52;;;;;;;;;;;;;;;15.46;34.04;99024.78;4401517;32;20004;-70
2022/04/08 09:18:18;;;;;;;;;;;;;;;15.96;33.84;99023.53;4401298;32;19977;-70
2022/04/08 09:20:45;;;;;;;;;;;;;;;16.25;33.79;99042.09;4416743;32;19985;-70
2022/04/08 09:23:11;;;;;;;;;;;;;;;16.39;32.33;99046.72;4417440;32;19967;-70
2022/04/08 09:25:39;;;;;;;;;;;;;;;16.52;32.30;99046.97;4419673;32;20353;-70
2022/04/08 09:28:05;;;;;;;;;;;;;;;16.50;32.37;99055.25;4417131;32;20017;-70
2022/04/08 09:30:30;;;;;;;;;;;;;;;16.72;32.46;99051.59;4415298;32;20005;-70
2022/04/08 09:32:56;;;;;;;;;;;;;;;16.03;32.83;99061.97;4419320;32;19968;-70
2022/04/08 09:35:24;;;;;;;;;;;;;;;16.01;33.20;99061.72;4417350;32;20299;-70
2022/04/08 09:37:58;;;;;;;;;;;;;;;16.01;33.26;99070.22;4413906;32;20014;-70
2022/04/08 09:40:24;;;;;;;;;;;;;;;15.85;32.29;99071.78;4415123;32;19984;-70
2022/04/08 09:42:49;;;;;;;;;;;;;;;16.37;32.47;99074.84;4419250;32;20344;-70
2022/04/08 09:45:26;;;;;;;;;;;;;;;16.37;32.43;99071.22;4416918;32;20034;-71
2022/04/08 09:47:51;;;;;;;;;;;;;;;16.78;30.59;99072.97;4416017;32;20385;-71
2022/04/08 09:50:17;;;;;;;;;;;;;;;16.27;31.91;99079.25;4419609;32;19988;-70
2022/04/08 09:52:44;;;;;;;;;;;;;;;16.85;30.52;99083.03;4422150;32;20027;-70
2022/04/08 09:55:11;;;;;;;;;;;;;;;17.03;32.15;99085.31;4413175;32;19960;-70
2022/04/08 09:57:37;;;;;;;;;;;;;;;16.95;31.56;99076.56;4414464;32;20013;-70
2022/04/08 10:00:03;;;;;;;;;;;;;;;17.14;30.77;99091.72;4419014;32;20060;-70
2022/04/08 10:02:29;;;;;;;;;;;;;;;17.40;29.99;99089.25;4414767;32;19954;-71
2022/04/08 10:04:55;;;;;;;;;;;;;;;17.92;30.22;99090.00;4415925;32;20099;-70
2022/04/08 10:07:21;;;;;;;;;;;;;;;18.27;28.98;99089.22;4399163;32;20531;-71
2022/04/08 10:09:54;;;;;;;;;;;;;;;18.44;29.59;99091.94;4415624;32;20289;-71
2022/04/08 10:12:29;;;;;;;;;;;;;;;18.27;28.86;99080.66;4411442;32;19965;-71
2022/04/08 10:17:32;;;;;;;;;;;;;;;19.19;27.42;99105.12;3973145;31;15742053;-71
2022/04/08 10:20:17;;;;;;;;;;;;;;;19.19;27.42;99105.12;4452204;32;19964;-70
2022/04/08 10:22:44;;;;;;;;;;;;;;;18.90;27.70;99100.28;4458147;32;20307;-71
2022/04/08 10:25:14;;;;;;;;;;;;;;;18.17;28.30;99093.69;4451059;32;19994;-70
2022/04/08 10:27:41;;;;;;;;;;;;;;;17.07;30.54;99097.16;4458506;32;19949;-70
2022/04/08 10:30:10;;;;;;;;;;;;;;;17.24;29.74;99089.34;4454577;32;19971;-70
2022/04/08 10:32:38;;;;;;;;;;;;;;;16.63;31.32;99095.22;4460233;32;20004;-70
2022/04/08 10:35:19;;;;;;;;;;;;;;;17.49;30.05;99102.44;4456449;32;20006;-70
2022/04/08 10:38:01;;;;;;;;;;;;;;;17.91;29.43;99104.75;4455704;32;20366;-70
2022/04/08 10:40:29;;;;;;;;;;;;;;;17.74;29.72;99106.94;4456926;32;20311;-70
2022/04/08 10:42:55;;;;;;;;;;;;;;;18.54;28.50;99107.38;4455159;32;19964;-70
2022/04/08 10:45:21;;;;;;;;;;;;;;;19.01;28.06;99108.69;4455277;32;19964;-69
2022/04/08 10:47:48;;;;;;;;;;;;;;;18.92;28.20;99115.53;4449922;32;19961;-70
2022/04/08 10:50:30;;;;;;;;;;;;;;;19.30;27.42;99119.28;4454300;32;20401;-71
2022/04/08 10:53:04;;;;;;;;;;;;;;;18.30;27.65;99108.09;4451437;32;20322;-69
2022/04/08 10:55:29;;;;;;;;;;;;;;;18.79;26.89;99112.56;4449948;32;20064;-69
2022/04/08 10:57:57;;;;;;;;;;;;;;;18.92;27.65;99120.44;4459230;32;20398;-69
2022/04/08 11:00:22;;;;;;;;;;;;;;;18.21;28.35;99127.56;4447316;32;20339;-70
2022/04/08 11:02:52;;;;;;;;;;;;;;;18.09;27.62;99124.03;4452097;32;19964;-69
2022/04/08 11:05:17;;;;;;;;;;;;;;;17.44;28.56;99121.09;4456456;32;19963;-70
2022/04/08 11:07:44;;;;;;;;;;;;;;;17.89;28.89;99124.44;4450324;32;19965;-70
2022/04/08 11:10:11;;;;;;;;;;;;;;;17.36;29.88;99130.63;4458481;32;20366;-70
2022/04/08 11:15:20;;;;;;;;;;;;;;;19.06;28.19;99140.00;3954310;32;15724641;-69
2022/04/08 11:17:51;;;;;;;;;;;;;;;19.06;28.19;99140.00;4430040;32;21122;-70
2022/04/08 11:20:17;;;;;;;;;;;;;;;20.09;26.17;99143.34;4429057;32;19953;-70
2022/04/08 11:22:44;;;;;;;;;;;;;;;20.62;25.51;99143.00;4422598;32;19984;-70
2022/04/08 11:25:10;;;;;;;;;;;;;;;21.16;24.85;99143.34;4419232;32;20030;-70
2022/04/08 11:27:36;;;;;;;;;;;;;;;20.77;24.66;99151.09;4433378;32;19981;-70
2022/04/08 11:30:07;;;;;;;;;;;;;;;21.56;24.29;99149.81;4425970;32;19984;-70
2022/04/08 11:32:33;;;;;;;;;;;;;;;21.64;23.04;99142.84;4429391;32;20004;-70
2022/04/08 11:34:58;;;;;;;;;;;;;;;22.27;23.38;99146.69;4428801;32;19978;-70
2022/04/08 11:37:27;;;;;;;;;;;;;;;21.80;23.11;99146.72;4430597;32;19982;-70
2022/04/08 11:39:57;;;;;;;;;;;;;;;22.45;23.51;99157.19;4429834;32;19984;-70
2022/04/08 11:42:22;;;;;;;;;;;;;;;22.61;22.96;99150.31;4431022;32;19980;-70
2022/04/08 11:44:48;;;;;;;;;;;;;;;22.27;22.97;99156.03;4429298;32;20237;-71
2022/04/08 11:47:17;;;;;;;;;;;;;;;21.70;23.96;99154.97;4432365;32;19961;-70
2022/04/08 11:49:43;;;;;;;;;;;;;;;22.03;23.89;99155.59;4432175;32;19984;-70
2022/04/08 11:52:09;;;;;;;;;;;;;;;21.12;24.27;99154.34;4426807;32;20321;-70
2022/04/08 11:54:35;;;;;;;;;;;;;;;21.55;23.90;99154.78;4425869;32;19958;-70
2022/04/08 11:57:01;;;;;;;;;;;;;;;20.86;24.98;99160.00;4430598;32;19957;-70
2022/04/08 11:59:27;;;;;;;;;;;;;;;20.25;25.06;99159.50;4430947;32;19961;-70
2022/04/08 12:01:57;;;;;;;;;;;;;;;19.18;26.70;99161.38;4433570;32;20004;-70
2022/04/08 12:04:23;;;;;;;;;;;;;;;19.79;25.78;99167.12;4433897;32;20017;-70
2022/04/08 12:06:49;;;;;;;;;;;;;;;20.65;24.61;99164.78;4432094;32;19977;-70
2022/04/08 12:09:15;;;;;;;;;;;;;;;21.28;23.67;99163.91;4431569;32;19957;-70
2022/04/08 12:11:43;;;;;;;;;;;;;;;21.47;23.45;99173.94;4428743;32;19945;-70
2022/04/08 12:14:09;;;;;;;;;;;;;;;21.89;23.02;99163.44;4428268;32;19950;-70
2022/04/08 12:16:36;;;;;;;;;;;;;;;23.08;21.47;99165.22;4429696;32;20026;-70
2022/04/08 12:19:02;;;;;;;;;;;;;;;23.84;20.92;99175.09;4424793;32;20340;-70
2022/04/08 12:21:29;;;;;;;;;;;;;;;23.07;22.07;99158.72;4432907;32;19955;-71
2022/04/08 12:23:55;;;;;;;;;;;;;;;24.29;20.60;99169.53;4429895;32;20389;-71
2022/04/08 12:26:25;;;;;;;;;;;;;;;23.78;20.58;99175.28;4421254;32;20351;-71
2022/04/08 12:29:01;;;;;;;;;;;;;;;22.54;21.96;99179.66;4416698;32;19958;-71
2022/04/08 12:31:27;;;;;;;;;;;;;;;21.76;22.21;99177.03;4416841;32;20367;-71
2022/04/08 12:33:53;;;;;;;;;;;;;;;21.62;22.87;99173.38;4417967;32;20660;-71
2022/04/08 12:36:19;;;;;;;;;;;;;;;21.98;22.32;99171.56;4415173;32;20288;-71
2022/04/08 12:38:45;;;;;;;;;;;;;;;22.42;21.11;99179.13;4412043;32;20379;-71
2022/04/08 12:41:11;;;;;;;;;;;;;;;23.54;20.68;99185.06;4414936;32;20082;-71
2022/04/08 12:43:37;;;;;;;;;;;;;;;25.09;19.58;99180.97;4413657;32;19972;-71
2022/04/08 12:46:03;;;;;;;;;;;;;;;24.95;18.62;99185.37;4416075;32;19992;-71
2022/04/08 12:48:28;;;;;;;;;;;;;;;24.83;18.23;99190.00;4419368;32;19946;-71
2022/04/08 12:50:56;;;;;;;;;;;;;;;24.05;18.49;99188.03;4416414;32;20344;-71
2022/04/08 12:53:22;;;;;;;;;;;;;;;23.87;18.82;99185.47;4421077;32;20292;-71